首页
METAR-TAF:

METAR-TAF

机场 :

Nenana, 阿拉斯加州, 美国

纬度: 64-33N, 经度: 149-05W, 海拔: 110米

当前天气观测

该预报发布于42分钟前的15:53 UTC
静风
温度 13°C
湿度 77%
气压 1022 hPa
能見度: 16.1公里
天空无云

METAR: PANN 211553Z AUTO 00000KT 10SM CLR 13/09 A3017 RMK AO2 SLP221 T01330094 TSNO

时间: 08:35 (16:35 UTC)


TAF: 丢失

超过4000个机场的气象观测和天气预报(METAR&TAF报告)。

可查询的气象台以黄色和红色小点在地图上表示。

将鼠标移到小点上方,可查看气象台名称。

然后点击查看天气观测和预报。

如需切换地图:点击带黑十字的绿色按钮放大地图;点击带横线的绿色按钮缩小地图;或者点击绿色箭头查看邻近地区的地图。


METAR-TAF: